sensor_id;sensor_type;location;lat;lon;timestamp;pressure;altitude;pressure_sealevel;temperature;humidity
79203;BME280;68630;42.748;23.278;2023-07-31T00:01:47;95143.86;;;20.65;68.42
79203;BME280;68630;42.748;23.278;2023-07-31T00:04:15;95148.15;;;20.53;68.68
79203;BME280;68630;42.748;23.278;2023-07-31T00:06:49;95148.64;;;20.70;68.03
79203;BME280;68630;42.748;23.278;2023-07-31T00:09:26;95150.74;;;20.74;67.75
79203;BME280;68630;42.748;23.278;2023-07-31T00:11:55;95156.45;;;20.69;68.06
79203;BME280;68630;42.748;23.278;2023-07-31T00:14:25;95151.47;;;20.72;68.02
79203;BME280;68630;42.748;23.278;2023-07-31T00:16:54;95152.49;;;20.71;68.18
79203;BME280;68630;42.748;23.278;2023-07-31T00:19:22;95147.23;;;20.81;68.11
79203;BME280;68630;42.748;23.278;2023-07-31T00:21:55;95135.42;;;20.47;69.49
79203;BME280;68630;42.748;23.278;2023-07-31T00:24:23;95140.44;;;20.50;69.88
79203;BME280;68630;42.748;23.278;2023-07-31T00:26:51;95135.30;;;20.37;70.24
79203;BME280;68630;42.748;23.278;2023-07-31T00:29:24;95123.30;;;20.29;70.83
79203;BME280;68630;42.748;23.278;2023-07-31T00:34:27;95115.87;;;20.45;71.29
79203;BME280;68630;42.748;23.278;2023-07-31T00:36:55;95119.30;;;20.43;71.11
79203;BME280;68630;42.748;23.278;2023-07-31T00:39:26;95112.16;;;20.28;71.90
79203;BME280;68630;42.748;23.278;2023-07-31T00:41:58;95107.28;;;20.28;71.93
79203;BME280;68630;42.748;23.278;2023-07-31T00:44:27;95113.90;;;20.43;71.25
79203;BME280;68630;42.748;23.278;2023-07-31T00:47:00;95112.28;;;20.13;72.27
79203;BME280;68630;42.748;23.278;2023-07-31T00:49:31;95116.50;;;20.23;71.79
79203;BME280;68630;42.748;23.278;2023-07-31T00:52:17;95119.27;;;20.18;71.98
79203;BME280;68630;42.748;23.278;2023-07-31T00:54:51;95111.57;;;19.98;72.72
79203;BME280;68630;42.748;23.278;2023-07-31T00:59:51;95108.80;;;19.74;73.74
79203;BME280;68630;42.748;23.278;2023-07-31T01:02:19;95102.30;;;19.90;73.09
79203;BME280;68630;42.748;23.278;2023-07-31T01:04:51;95100.14;;;19.78;73.52
79203;BME280;68630;42.748;23.278;2023-07-31T01:07:31;95099.03;;;19.83;73.32
79203;BME280;68630;42.748;23.278;2023-07-31T01:12:28;95105.05;;;20.03;72.61
79203;BME280;68630;42.748;23.278;2023-07-31T01:15:09;95101.58;;;19.74;73.67
79203;BME280;68630;42.748;23.278;2023-07-31T01:17:45;95095.12;;;19.86;73.38
79203;BME280;68630;42.748;23.278;2023-07-31T01:20:17;95098.50;;;19.84;73.52
79203;BME280;68630;42.748;23.278;2023-07-31T01:28:56;95084.43;;;19.60;74.58
79203;BME280;68630;42.748;23.278;2023-07-31T01:31:26;95082.21;;;19.71;74.29
79203;BME280;68630;42.748;23.278;2023-07-31T01:34:04;95077.38;;;19.77;74.09
79203;BME280;68630;42.748;23.278;2023-07-31T01:36:34;95081.69;;;19.71;74.31
79203;BME280;68630;42.748;23.278;2023-07-31T01:39:04;95079.96;;;19.63;74.64
79203;BME280;68630;42.748;23.278;2023-07-31T01:41:38;95078.03;;;19.68;74.56
79203;BME280;68630;42.748;23.278;2023-07-31T01:44:07;95077.50;;;19.51;75.22
79203;BME280;68630;42.748;23.278;2023-07-31T01:46:39;95085.01;;;19.56;75.08
79203;BME280;68630;42.748;23.278;2023-07-31T01:49:09;95082.79;;;19.38;75.79
79203;BME280;68630;42.748;23.278;2023-07-31T01:51:46;95091.66;;;19.42;75.59
79203;BME280;68630;42.748;23.278;2023-07-31T01:54:18;95090.22;;;19.46;75.48
79203;BME280;68630;42.748;23.278;2023-07-31T01:56:46;95091.56;;;19.18;76.53
79203;BME280;68630;42.748;23.278;2023-07-31T01:59:17;95097.91;;;19.32;76.06
79203;BME280;68630;42.748;23.278;2023-07-31T02:04:50;95097.41;;;18.89;77.80
79203;BME280;68630;42.748;23.278;2023-07-31T02:09:47;95098.24;;;18.90;78.04
79203;BME280;68630;42.748;23.278;2023-07-31T02:15:11;95097.11;;;18.88;78.20
79203;BME280;68630;42.748;23.278;2023-07-31T02:17:40;95101.20;;;18.84;78.99
79203;BME280;68630;42.748;23.278;2023-07-31T02:20:09;95095.95;;;18.98;78.62
79203;BME280;68630;42.748;23.278;2023-07-31T02:22:38;95094.95;;;19.27;77.74
79203;BME280;68630;42.748;23.278;2023-07-31T02:25:11;95101.98;;;19.50;76.98
79203;BME280;68630;42.748;23.278;2023-07-31T02:27:40;95106.03;;;19.50;77.22
79203;BME280;68630;42.748;23.278;2023-07-31T02:30:09;95092.04;;;19.50;77.41
79203;BME280;68630;42.748;23.278;2023-07-31T02:32:39;95093.58;;;19.49;77.64
79203;BME280;68630;42.748;23.278;2023-07-31T02:35:08;95092.28;;;19.55;77.47
79203;BME280;68630;42.748;23.278;2023-07-31T02:37:37;95093.98;;;19.63;77.32
79203;BME280;68630;42.748;23.278;2023-07-31T02:40:06;95089.88;;;19.56;77.71
79203;BME280;68630;42.748;23.278;2023-07-31T02:42:37;95098.16;;;19.76;77.02
79203;BME280;68630;42.748;23.278;2023-07-31T02:45:07;95102.50;;;19.88;76.50
79203;BME280;68630;42.748;23.278;2023-07-31T02:47:37;95103.16;;;19.69;77.31
79203;BME280;68630;42.748;23.278;2023-07-31T02:50:06;95106.80;;;19.82;76.80
79203;BME280;68630;42.748;23.278;2023-07-31T02:52:36;95113.93;;;19.90;76.44
79203;BME280;68630;42.748;23.278;2023-07-31T02:55:05;95116.47;;;20.16;75.40
79203;BME280;68630;42.748;23.278;2023-07-31T02:57:38;95122.81;;;19.84;76.60
79203;BME280;68630;42.748;23.278;2023-07-31T03:00:08;95123.86;;;20.00;76.07
79203;BME280;68630;42.748;23.278;2023-07-31T03:02:38;95120.91;;;20.13;75.52
79203;BME280;68630;42.748;23.278;2023-07-31T03:05:11;95123.86;;;20.00;75.94
79203;BME280;68630;42.748;23.278;2023-07-31T03:07:40;95136.30;;;20.12;75.61
79203;BME280;68630;42.748;23.278;2023-07-31T03:10:16;95135.28;;;20.20;75.34
79203;BME280;68630;42.748;23.278;2023-07-31T03:12:46;95131.34;;;19.98;76.04
79203;BME280;68630;42.748;23.278;2023-07-31T03:15:16;95124.34;;;19.93;76.25
79203;BME280;68630;42.748;23.278;2023-07-31T03:17:44;95133.80;;;19.93;76.26
79203;BME280;68630;42.748;23.278;2023-07-31T03:20:13;95131.16;;;19.89;76.50
79203;BME280;68630;42.748;23.278;2023-07-31T03:22:41;95129.12;;;19.91;76.16
79203;BME280;68630;42.748;23.278;2023-07-31T03:25:09;95136.06;;;20.07;75.43
79203;BME280;68630;42.748;23.278;2023-07-31T03:27:36;95137.80;;;20.04;75.65
79203;BME280;68630;42.748;23.278;2023-07-31T03:30:19;95133.07;;;20.13;75.14
79203;BME280;68630;42.748;23.278;2023-07-31T03:32:33;95135.05;;;20.15;74.92
79203;BME280;68630;42.748;23.278;2023-07-31T03:35:01;95137.52;;;20.10;75.12
79203;BME280;68630;42.748;23.278;2023-07-31T03:37:28;95136.48;;;20.28;74.38
79203;BME280;68630;42.748;23.278;2023-07-31T03:39:58;95140.49;;;20.21;74.62
79203;BME280;68630;42.748;23.278;2023-07-31T03:42:26;95138.98;;;20.30;74.30
79203;BME280;68630;42.748;23.278;2023-07-31T03:44:53;95147.52;;;20.33;74.10
79203;BME280;68630;42.748;23.278;2023-07-31T03:47:21;95158.64;;;20.52;73.33
79203;BME280;68630;42.748;23.278;2023-07-31T03:49:49;95155.07;;;20.45;73.41
79203;BME280;68630;42.748;23.278;2023-07-31T03:52:16;95150.06;;;20.42;73.58
79203;BME280;68630;42.748;23.278;2023-07-31T03:54:44;95146.89;;;20.31;73.95
79203;BME280;68630;42.748;23.278;2023-07-31T03:57:12;95150.42;;;20.32;73.96
79203;BME280;68630;42.748;23.278;2023-07-31T03:59:39;95150.30;;;20.47;73.41
79203;BME280;68630;42.748;23.278;2023-07-31T04:02:06;95152.20;;;20.53;73.12
79203;BME280;68630;42.748;23.278;2023-07-31T04:04:33;95154.25;;;20.51;73.28
79203;BME280;68630;42.748;23.278;2023-07-31T04:07:01;95163.91;;;20.43;73.47
79203;BME280;68630;42.748;23.278;2023-07-31T04:09:29;95162.09;;;20.32;74.08
79203;BME280;68630;42.748;23.278;2023-07-31T04:11:56;95167.96;;;20.43;73.41
79203;BME280;68630;42.748;23.278;2023-07-31T04:14:24;95162.36;;;20.51;73.11
79203;BME280;68630;42.748;23.278;2023-07-31T04:16:51;95161.47;;;20.61;72.50
79203;BME280;68630;42.748;23.278;2023-07-31T04:19:19;95160.03;;;20.83;71.83
79203;BME280;68630;42.748;23.278;2023-07-31T04:21:46;95165.30;;;20.98;71.15
79203;BME280;68630;42.748;23.278;2023-07-31T04:24:13;95164.48;;;20.80;71.70
79203;BME280;68630;42.748;23.278;2023-07-31T04:26:41;95168.05;;;20.87;71.33
79203;BME280;68630;42.748;23.278;2023-07-31T04:29:10;95171.58;;;20.81;71.61
79203;BME280;68630;42.748;23.278;2023-07-31T04:31:39;95186.88;;;20.84;71.53
79203;BME280;68630;42.748;23.278;2023-07-31T04:34:07;95182.99;;;21.07;70.79
79203;BME280;68630;42.748;23.278;2023-07-31T04:36:35;95177.78;;;21.05;70.74
79203;BME280;68630;42.748;23.278;2023-07-31T04:39:02;95177.93;;;21.28;70.17
79203;BME280;68630;42.748;23.278;2023-07-31T04:41:30;95177.17;;;21.47;69.44
79203;BME280;68630;42.748;23.278;2023-07-31T04:43:59;95175.91;;;21.50;69.49
79203;BME280;68630;42.748;23.278;2023-07-31T04:46:27;95172.89;;;21.62;68.80
79203;BME280;68630;42.748;23.278;2023-07-31T04:48:55;95167.69;;;21.81;67.66
79203;BME280;68630;42.748;23.278;2023-07-31T04:51:23;95168.10;;;21.78;67.73
79203;BME280;68630;42.748;23.278;2023-07-31T04:53:51;95165.30;;;21.62;67.87
79203;BME280;68630;42.748;23.278;2023-07-31T04:56:19;95168.90;;;22.18;66.04
79203;BME280;68630;42.748;23.278;2023-07-31T04:58:46;95165.52;;;23.97;60.32
79203;BME280;68630;42.748;23.278;2023-07-31T05:01:14;95165.52;;;23.97;60.32
79203;BME280;68630;42.748;23.278;2023-07-31T05:03:41;95159.56;;;24.51;58.57
79203;BME280;68630;42.748;23.278;2023-07-31T05:06:09;95157.45;;;25.29;56.03
79203;BME280;68630;42.748;23.278;2023-07-31T05:08:40;95153.57;;;25.79;54.29
79203;BME280;68630;42.748;23.278;2023-07-31T05:11:07;95163.11;;;25.79;53.84
79203;BME280;68630;42.748;23.278;2023-07-31T05:13:35;95166.45;;;25.20;55.48
79203;BME280;68630;42.748;23.278;2023-07-31T05:16:02;95161.72;;;25.67;54.26
79203;BME280;68630;42.748;23.278;2023-07-31T05:18:30;95161.20;;;26.36;52.90
79203;BME280;68630;42.748;23.278;2023-07-31T05:20:57;95164.53;;;27.02;50.81
79203;BME280;68630;42.748;23.278;2023-07-31T05:23:25;95158.05;;;26.30;51.90
79203;BME280;68630;42.748;23.278;2023-07-31T05:25:53;95156.83;;;25.90;53.03
79203;BME280;68630;42.748;23.278;2023-07-31T05:28:21;95161.52;;;24.99;55.66
79203;BME280;68630;42.748;23.278;2023-07-31T05:30:49;95165.30;;;26.12;52.99
79203;BME280;68630;42.748;23.278;2023-07-31T05:33:16;95159.05;;;26.50;51.82
79203;BME280;68630;42.748;23.278;2023-07-31T05:35:44;95162.67;;;26.53;51.85
79203;BME280;68630;42.748;23.278;2023-07-31T05:38:12;95154.59;;;26.96;49.83
79203;BME280;68630;42.748;23.278;2023-07-31T05:40:39;95172.09;;;25.47;53.32
79203;BME280;68630;42.748;23.278;2023-07-31T05:43:07;95168.62;;;25.39;53.82
79203;BME280;68630;42.748;23.278;2023-07-31T05:45:34;95171.08;;;24.71;55.18
79203;BME280;68630;42.748;23.278;2023-07-31T05:48:02;95175.83;;;24.85;54.88
79203;BME280;68630;42.748;23.278;2023-07-31T05:50:30;95170.23;;;25.59;52.44
79203;BME280;68630;42.748;23.278;2023-07-31T05:52:58;95162.13;;;26.91;48.19
79203;BME280;68630;42.748;23.278;2023-07-31T05:55:26;95161.63;;;27.81;47.05
79203;BME280;68630;42.748;23.278;2023-07-31T05:57:54;95158.89;;;28.49;44.87
79203;BME280;68630;42.748;23.278;2023-07-31T06:00:21;95158.27;;;28.44;44.56
79203;BME280;68630;42.748;23.278;2023-07-31T06:02:49;95176.61;;;28.24;45.29
79203;BME280;68630;42.748;23.278;2023-07-31T06:05:18;95175.20;;;28.78;44.22
79203;BME280;68630;42.748;23.278;2023-07-31T06:07:46;95182.98;;;28.13;45.06
79203;BME280;68630;42.748;23.278;2023-07-31T06:10:13;95179.05;;;26.53;48.54
79203;BME280;68630;42.748;23.278;2023-07-31T06:12:41;95173.25;;;26.38;49.18
79203;BME280;68630;42.748;23.278;2023-07-31T06:15:08;95180.57;;;25.69;50.49
79203;BME280;68630;42.748;23.278;2023-07-31T06:17:36;95178.87;;;25.35;51.52
79203;BME280;68630;42.748;23.278;2023-07-31T06:20:05;95180.86;;;25.00;51.88
79203;BME280;68630;42.748;23.278;2023-07-31T06:22:33;95183.02;;;25.19;51.50
79203;BME280;68630;42.748;23.278;2023-07-31T06:25:00;95187.04;;;25.35;51.37
79203;BME280;68630;42.748;23.278;2023-07-31T06:27:28;95188.70;;;24.43;53.01
79203;BME280;68630;42.748;23.278;2023-07-31T06:29:56;95191.27;;;25.31;51.03
79203;BME280;68630;42.748;23.278;2023-07-31T06:32:24;95192.80;;;25.27;50.87
79203;BME280;68630;42.748;23.278;2023-07-31T06:34:51;95189.66;;;26.52;48.74
79203;BME280;68630;42.748;23.278;2023-07-31T06:37:20;95195.25;;;26.69;48.27
79203;BME280;68630;42.748;23.278;2023-07-31T06:39:48;95187.09;;;27.67;45.23
79203;BME280;68630;42.748;23.278;2023-07-31T06:42:15;95192.31;;;27.97;44.90
79203;BME280;68630;42.748;23.278;2023-07-31T06:44:43;95195.59;;;27.25;45.39
79203;BME280;68630;42.748;23.278;2023-07-31T06:47:10;95186.91;;;28.73;42.46
79203;BME280;68630;42.748;23.278;2023-07-31T06:49:38;95200.05;;;29.62;40.27
79203;BME280;68630;42.748;23.278;2023-07-31T06:52:06;95190.44;;;30.16;39.41
79203;BME280;68630;42.748;23.278;2023-07-31T06:54:34;95198.28;;;30.02;39.43
79203;BME280;68630;42.748;23.278;2023-07-31T06:57:05;95195.79;;;30.33;39.25
79203;BME280;68630;42.748;23.278;2023-07-31T06:59:33;95190.00;;;31.20;37.21
79203;BME280;68630;42.748;23.278;2023-07-31T07:02:10;95184.66;;;30.48;38.81
79203;BME280;68630;42.748;23.278;2023-07-31T07:04:34;95185.59;;;30.29;38.88
79203;BME280;68630;42.748;23.278;2023-07-31T07:07:02;95187.70;;;30.51;38.37
79203;BME280;68630;42.748;23.278;2023-07-31T07:09:30;95188.86;;;29.93;38.88
79203;BME280;68630;42.748;23.278;2023-07-31T07:11:59;95179.77;;;29.36;40.07
79203;BME280;68630;42.748;23.278;2023-07-31T07:14:27;95183.40;;;29.68;39.33
79203;BME280;68630;42.748;23.278;2023-07-31T07:16:56;95176.17;;;29.32;40.23
79203;BME280;68630;42.748;23.278;2023-07-31T07:19:24;95178.89;;;28.88;41.03
79203;BME280;68630;42.748;23.278;2023-07-31T07:21:53;95172.12;;;28.96;40.40
79203;BME280;68630;42.748;23.278;2023-07-31T07:24:22;95176.55;;;28.05;42.60
79203;BME280;68630;42.748;23.278;2023-07-31T07:26:50;95174.10;;;28.79;41.67
79203;BME280;68630;42.748;23.278;2023-07-31T07:29:20;95178.34;;;30.47;38.62
79203;BME280;68630;42.748;23.278;2023-07-31T07:31:50;95173.61;;;30.88;36.96
79203;BME280;68630;42.748;23.278;2023-07-31T07:34:29;95168.33;;;29.71;39.51
79203;BME280;68630;42.748;23.278;2023-07-31T07:36:55;95176.61;;;30.36;38.41
79203;BME280;68630;42.748;23.278;2023-07-31T07:39:24;95166.87;;;31.08;36.53
79203;BME280;68630;42.748;23.278;2023-07-31T07:41:53;95173.98;;;33.51;32.57
79203;BME280;68630;42.748;23.278;2023-07-31T07:44:22;95187.17;;;34.43;31.42
79203;BME280;68630;42.748;23.278;2023-07-31T07:46:51;95178.78;;;33.85;31.18
79203;BME280;68630;42.748;23.278;2023-07-31T07:49:19;95170.55;;;33.12;32.24
79203;BME280;68630;42.748;23.278;2023-07-31T07:51:49;95179.94;;;33.73;31.57
79203;BME280;68630;42.748;23.278;2023-07-31T07:54:17;95180.89;;;32.16;33.93
79203;BME280;68630;42.748;23.278;2023-07-31T07:56:50;95186.37;;;31.88;34.53
79203;BME280;68630;42.748;23.278;2023-07-31T07:59:17;95186.69;;;32.22;34.11
79203;BME280;68630;42.748;23.278;2023-07-31T08:01:47;95186.66;;;32.69;32.98
79203;BME280;68630;42.748;23.278;2023-07-31T08:04:15;95187.44;;;33.60;31.39
79203;BME280;68630;42.748;23.278;2023-07-31T08:06:45;95191.20;;;35.36;29.33
79203;BME280;68630;42.748;23.278;2023-07-31T08:09:17;95189.70;;;34.37;30.08
79203;BME280;68630;42.748;23.278;2023-07-31T08:11:45;95186.45;;;34.91;29.74
79203;BME280;68630;42.748;23.278;2023-07-31T08:14:12;95185.71;;;35.34;28.97
79203;BME280;68630;42.748;23.278;2023-07-31T08:16:43;95190.48;;;34.75;29.64
79203;BME280;68630;42.748;23.278;2023-07-31T08:19:09;95191.62;;;34.02;31.12
79203;BME280;68630;42.748;23.278;2023-07-31T08:21:37;95190.61;;;35.13;28.99
79203;BME280;68630;42.748;23.278;2023-07-31T08:24:05;95188.45;;;36.15;27.75
79203;BME280;68630;42.748;23.278;2023-07-31T08:26:34;95190.85;;;35.40;28.23
79203;BME280;68630;42.748;23.278;2023-07-31T08:29:02;95192.97;;;34.74;28.87
79203;BME280;68630;42.748;23.278;2023-07-31T08:31:30;95199.61;;;34.43;29.43
79203;BME280;68630;42.748;23.278;2023-07-31T08:34:01;95190.72;;;34.78;29.31
79203;BME280;68630;42.748;23.278;2023-07-31T08:36:27;95184.73;;;34.95;29.09
79203;BME280;68630;42.748;23.278;2023-07-31T08:38:55;95191.26;;;35.04;28.27
79203;BME280;68630;42.748;23.278;2023-07-31T08:41:23;95185.70;;;34.19;29.73
79203;BME280;68630;42.748;23.278;2023-07-31T08:43:52;95192.43;;;35.25;28.13
79203;BME280;68630;42.748;23.278;2023-07-31T08:46:20;95176.45;;;35.22;28.36
79203;BME280;68630;42.748;23.278;2023-07-31T08:48:49;95184.78;;;34.93;29.05
79203;BME280;68630;42.748;23.278;2023-07-31T08:51:35;95189.08;;;34.45;29.09
79203;BME280;68630;42.748;23.278;2023-07-31T08:53:49;95186.28;;;34.82;28.34
79203;BME280;68630;42.748;23.278;2023-07-31T08:56:17;95183.59;;;34.99;28.65
79203;BME280;68630;42.748;23.278;2023-07-31T08:58:46;95178.80;;;35.74;27.41
79203;BME280;68630;42.748;23.278;2023-07-31T09:01:17;95184.18;;;35.22;28.06
79203;BME280;68630;42.748;23.278;2023-07-31T09:03:45;95180.66;;;36.17;27.00
79203;BME280;68630;42.748;23.278;2023-07-31T09:06:14;95176.98;;;34.68;29.04
79203;BME280;68630;42.748;23.278;2023-07-31T09:08:44;95176.02;;;34.22;29.74
79203;BME280;68630;42.748;23.278;2023-07-31T09:11:12;95182.94;;;34.19;29.88
79203;BME280;68630;42.748;23.278;2023-07-31T09:13:40;95176.73;;;35.42;28.40
79203;BME280;68630;42.748;23.278;2023-07-31T09:16:09;95171.53;;;35.59;28.19
79203;BME280;68630;42.748;23.278;2023-07-31T09:18:53;95162.64;;;36.36;26.69
79203;BME280;68630;42.748;23.278;2023-07-31T09:21:23;95163.33;;;35.92;27.25
79203;BME280;68630;42.748;23.278;2023-07-31T09:23:52;95156.91;;;36.63;26.22
79203;BME280;68630;42.748;23.278;2023-07-31T09:26:34;95159.03;;;36.85;26.02
79203;BME280;68630;42.748;23.278;2023-07-31T09:29:04;95153.05;;;35.55;27.55
79203;BME280;68630;42.748;23.278;2023-07-31T09:31:43;95156.50;;;37.00;25.79
79203;BME280;68630;42.748;23.278;2023-07-31T09:34:07;95146.80;;;35.87;27.21
79203;BME280;68630;42.748;23.278;2023-07-31T09:36:46;95138.76;;;36.40;26.03
79203;BME280;68630;42.748;23.278;2023-07-31T09:39:16;95143.55;;;36.34;26.98
79203;BME280;68630;42.748;23.278;2023-07-31T09:41:46;95142.91;;;36.87;25.85
79203;BME280;68630;42.748;23.278;2023-07-31T09:44:14;95143.63;;;37.73;24.22
79203;BME280;68630;42.748;23.278;2023-07-31T09:46:42;95149.97;;;36.93;25.62
79203;BME280;68630;42.748;23.278;2023-07-31T09:49:11;95150.85;;;32.69;30.64
79203;BME280;68630;42.748;23.278;2023-07-31T09:51:42;95141.62;;;33.69;30.11
79203;BME280;68630;42.748;23.278;2023-07-31T09:54:16;95144.48;;;34.86;27.70
79203;BME280;68630;42.748;23.278;2023-07-31T09:56:46;95138.13;;;35.32;27.70
79203;BME280;68630;42.748;23.278;2023-07-31T09:59:19;95130.20;;;35.01;27.76
79203;BME280;68630;42.748;23.278;2023-07-31T10:01:47;95128.73;;;34.31;28.83
79203;BME280;68630;42.748;23.278;2023-07-31T10:04:17;95127.33;;;34.60;28.19
79203;BME280;68630;42.748;23.278;2023-07-31T10:06:47;95137.22;;;34.03;28.78
79203;BME280;68630;42.748;23.278;2023-07-31T10:09:18;95139.94;;;34.42;28.14
79203;BME280;68630;42.748;23.278;2023-07-31T10:11:58;95127.41;;;32.79;30.56
79203;BME280;68630;42.748;23.278;2023-07-31T10:14:22;95133.48;;;31.52;32.04
79203;BME280;68630;42.748;23.278;2023-07-31T10:16:51;95127.64;;;31.28;32.37
79203;BME280;68630;42.748;23.278;2023-07-31T10:19:21;95127.03;;;30.53;33.84
79203;BME280;68630;42.748;23.278;2023-07-31T10:21:50;95122.25;;;30.00;34.71
79203;BME280;68630;42.748;23.278;2023-07-31T10:24:19;95119.88;;;30.49;33.69
79203;BME280;68630;42.748;23.278;2023-07-31T10:26:47;95118.53;;;31.12;32.92
79203;BME280;68630;42.748;23.278;2023-07-31T10:29:16;95115.60;;;32.50;31.23
79203;BME280;68630;42.748;23.278;2023-07-31T10:31:45;95119.27;;;33.18;29.53
79203;BME280;68630;42.748;23.278;2023-07-31T10:37:23;95111.04;;;33.00;29.83
79203;BME280;68630;42.748;23.278;2023-07-31T10:40:03;95117.31;;;31.84;31.60
79203;BME280;68630;42.748;23.278;2023-07-31T10:42:45;95123.89;;;31.60;31.95
79203;BME280;68630;42.748;23.278;2023-07-31T10:45:05;95108.37;;;31.18;32.52
79203;BME280;68630;42.748;23.278;2023-07-31T10:47:46;95112.95;;;30.39;33.56
79203;BME280;68630;42.748;23.278;2023-07-31T10:52:53;95099.09;;;30.26;33.04
79203;BME280;68630;42.748;23.278;2023-07-31T10:55:31;95109.12;;;30.02;33.28
79203;BME280;68630;42.748;23.278;2023-07-31T10:58:07;95107.22;;;29.76;34.07
79203;BME280;68630;42.748;23.278;2023-07-31T11:00:38;95097.20;;;30.27;33.03
79203;BME280;68630;42.748;23.278;2023-07-31T11:03:08;95097.98;;;29.82;33.56
79203;BME280;68630;42.748;23.278;2023-07-31T11:06:03;95106.38;;;30.45;32.38
79203;BME280;68630;42.748;23.278;2023-07-31T11:08:44;95095.47;;;30.60;31.83
79203;BME280;68630;42.748;23.278;2023-07-31T11:11:16;95093.66;;;30.81;32.41
79203;BME280;68630;42.748;23.278;2023-07-31T11:13:46;95089.27;;;30.83;31.86
79203;BME280;68630;42.748;23.278;2023-07-31T11:16:24;95079.67;;;30.91;31.63
79203;BME280;68630;42.748;23.278;2023-07-31T11:18:53;95089.38;;;31.11;31.13
79203;BME280;68630;42.748;23.278;2023-07-31T11:21:26;95085.91;;;30.71;31.83
79203;BME280;68630;42.748;23.278;2023-07-31T11:23:58;95089.95;;;30.55;32.09
79203;BME280;68630;42.748;23.278;2023-07-31T11:26:28;95089.14;;;30.52;32.40
79203;BME280;68630;42.748;23.278;2023-07-31T11:28:58;95076.91;;;29.90;33.77
79203;BME280;68630;42.748;23.278;2023-07-31T11:31:26;95099.26;;;30.06;33.38
79203;BME280;68630;42.748;23.278;2023-07-31T11:34:08;95097.55;;;30.35;33.85
79203;BME280;68630;42.748;23.278;2023-07-31T11:36:47;95086.28;;;29.97;33.59
79203;BME280;68630;42.748;23.278;2023-07-31T11:39:07;95093.73;;;30.04;34.34
79203;BME280;68630;42.748;23.278;2023-07-31T11:41:42;95086.20;;;30.72;32.18
79203;BME280;68630;42.748;23.278;2023-07-31T11:44:19;95084.33;;;30.32;33.18
79203;BME280;68630;42.748;23.278;2023-07-31T11:46:42;95082.27;;;30.12;32.87
79203;BME280;68630;42.748;23.278;2023-07-31T11:49:10;95077.44;;;30.30;32.79
79203;BME280;68630;42.748;23.278;2023-07-31T11:51:38;95076.20;;;30.05;32.98
79203;BME280;68630;42.748;23.278;2023-07-31T11:54:06;95078.27;;;29.58;34.05
79203;BME280;68630;42.748;23.278;2023-07-31T11:56:34;95070.89;;;29.61;33.37
79203;BME280;68630;42.748;23.278;2023-07-31T11:59:02;95071.97;;;29.87;33.78
79203;BME280;68630;42.748;23.278;2023-07-31T12:01:33;95071.78;;;29.66;34.13
79203;BME280;68630;42.748;23.278;2023-07-31T12:04:01;95064.20;;;29.49;35.15
79203;BME280;68630;42.748;23.278;2023-07-31T12:06:35;95065.53;;;29.44;35.52
79203;BME280;68630;42.748;23.278;2023-07-31T12:09:06;95065.02;;;29.47;35.37
79203;BME280;68630;42.748;23.278;2023-07-31T12:11:49;95062.09;;;29.56;35.58
79203;BME280;68630;42.748;23.278;2023-07-31T12:14:30;95067.03;;;29.59;35.13
79203;BME280;68630;42.748;23.278;2023-07-31T12:16:58;95068.34;;;29.79;34.74
79203;BME280;68630;42.748;23.278;2023-07-31T12:19:28;95053.63;;;29.95;34.06
79203;BME280;68630;42.748;23.278;2023-07-31T12:21:58;95055.16;;;29.48;33.72
79203;BME280;68630;42.748;23.278;2023-07-31T12:24:33;95051.61;;;29.50;34.02
79203;BME280;68630;42.748;23.278;2023-07-31T12:26:59;95044.54;;;29.57;34.66
79203;BME280;68630;42.748;23.278;2023-07-31T12:29:34;95047.35;;;29.97;34.14
79203;BME280;68630;42.748;23.278;2023-07-31T12:32:25;95045.31;;;30.25;33.77
79203;BME280;68630;42.748;23.278;2023-07-31T12:34:43;95046.59;;;29.72;34.16
79203;BME280;68630;42.748;23.278;2023-07-31T12:37:11;95056.07;;;29.89;34.25
79203;BME280;68630;42.748;23.278;2023-07-31T12:39:45;95053.30;;;29.86;34.00
79203;BME280;68630;42.748;23.278;2023-07-31T12:42:09;95053.14;;;30.01;33.83
79203;BME280;68630;42.748;23.278;2023-07-31T12:44:38;95053.59;;;29.87;34.54
79203;BME280;68630;42.748;23.278;2023-07-31T12:47:06;95050.84;;;29.87;34.65
79203;BME280;68630;42.748;23.278;2023-07-31T12:49:34;95051.00;;;29.41;35.04
79203;BME280;68630;42.748;23.278;2023-07-31T12:52:03;95045.06;;;29.54;34.85
79203;BME280;68630;42.748;23.278;2023-07-31T12:54:32;95036.00;;;29.19;35.87
79203;BME280;68630;42.748;23.278;2023-07-31T12:57:01;95038.45;;;29.50;35.88
79203;BME280;68630;42.748;23.278;2023-07-31T12:59:29;95037.39;;;29.54;34.87
79203;BME280;68630;42.748;23.278;2023-07-31T13:02:01;95035.27;;;29.98;34.04
79203;BME280;68630;42.748;23.278;2023-07-31T13:04:29;95032.41;;;30.23;33.08
79203;BME280;68630;42.748;23.278;2023-07-31T13:06:57;95029.91;;;30.19;32.72
79203;BME280;68630;42.748;23.278;2023-07-31T13:09:25;95028.11;;;29.92;33.12
79203;BME280;68630;42.748;23.278;2023-07-31T13:11:53;95025.69;;;29.63;33.44
79203;BME280;68630;42.748;23.278;2023-07-31T13:14:22;95027.31;;;29.29;34.04
79203;BME280;68630;42.748;23.278;2023-07-31T13:16:50;95029.63;;;28.88;34.87
79203;BME280;68630;42.748;23.278;2023-07-31T13:19:18;95014.95;;;28.72;35.33
79203;BME280;68630;42.748;23.278;2023-07-31T13:21:46;95031.63;;;28.71;35.64
79203;BME280;68630;42.748;23.278;2023-07-31T13:24:14;95019.62;;;28.74;35.35
79203;BME280;68630;42.748;23.278;2023-07-31T13:26:42;95025.53;;;28.64;35.79
79203;BME280;68630;42.748;23.278;2023-07-31T13:29:10;95026.09;;;28.66;36.22
79203;BME280;68630;42.748;23.278;2023-07-31T13:31:39;95033.95;;;29.09;35.53